Coffeyville Municipal Airport

About
Name: Coffeyville Municipal Airport
Identifier:  CFV/KCFV
Local Time:  23. Aug 00:00 CDT
Location
Coffeyville
  United States

Flights per Day
0 flights
Distance: 495km (307mi)
Punctuality
75% (0 flights per day delayed)
Delay Average: 20 minutes
Current Weather
 24 C (Humidity: 88%)
  5kt (9km/h / 5mph) from 10°
  Few clouds at 5,000 feet (1,524 meter)
  Broken clouds at 10,000 feet (3,048 meter)
  Overcast at 12,000 feet (3,657 meter)
  11km (7 mi.)
 Rain
 METAR KCFV 230352Z AUTO 01005KT 7SM RA FEW050 BKN100 OVC120 24/22 A2995 RMK AO2 RAB34 SLP136 P0002 T02390222

Current Flights

Departures
Number Departure To Airline
Arrivals
Number Arrival From Airline

Current Delays

Departures
N/A
Arrivals
N/A

Destinations

Top Destinations
Airport Flights
per week
Seats
per week
  Ponca City (PNC) 1 - 0 0
  Sugar Land (SGR) 1 - 0 0
  Millington (NQA) 0 - 0 0
  Dubuque (DBQ) 0 - 0 0
  Wichita (ICT) 0 - 0 0

Airlines & Planes

Top Airlines
Airline Flights
per Day
Seats
per Day
Nordwind Airlines 0 -
  Nolinor Aviation 0 -
  National Airlines 0 -
EagleMed 0 -
Top Plane Types
Model Flights Seats
Beech B300 Super King Air 350 0.2/day - 0
Beech B200 Super King Air 0.0/day - 0